Time;durP1;ratioP1;P1;durP2;ratioP2;P2;SDS_P1;SDS_P2;PMS_P1;PMS_P2;Temp;Humidity;BMP_temperature;BMP_pressure;BME280_temperature;BME280_humidity;BME280_pressure;Samples;Min_cycle;Max_cycle;Signal;HPM_P1;HPM_P2
2021/11/20 00:00:28;;;;;;;6.37;1.80;;;;;;;11.40;100.00;100865.11;5129395;57;1139162;-86
2021/11/20 00:05:40;;;;;;;1.63;1.10;;;;;;;11.43;100.00;100835.75;5129404;57;1139253;-87
2021/11/20 00:10:51;;;;;;;6.30;1.33;;;;;;;11.44;100.00;100852.85;5129296;57;1139103;-89
2021/11/20 00:16:02;;;;;;;6.47;1.57;;;;;;;11.47;100.00;100838.03;5128910;57;1136865;-87
2021/11/20 00:21:13;;;;;;;7.13;2.87;;;;;;;11.46;100.00;100842.95;5235804;56;21089;-86
2021/11/20 00:26:23;;;;;;;1.47;0.83;;;;;;;11.47;100.00;100831.41;5254140;56;1136802;-88
2021/11/20 00:31:36;;;;;;;2.92;1.00;;;;;;;11.46;100.00;100840.31;5254003;56;1141007;-86
2021/11/20 00:36:42;;;;;;;5.25;1.60;;;;;;;11.47;100.00;100827.91;5254273;56;1141085;-88
2021/11/20 00:41:50;;;;;;;3.43;1.10;;;;;;;11.46;100.00;100835.49;5253708;56;1140943;-89
2021/11/20 00:46:56;;;;;;;3.07;1.13;;;;;;;11.48;100.00;100842.36;5253661;56;1141359;-86
2021/11/20 00:52:03;;;;;;;4.93;1.03;;;;;;;11.51;100.00;100839.48;5253650;56;1141068;-88
2021/11/20 00:57:11;;;;;;;4.53;1.63;;;;;;;11.54;100.00;100847.69;5253771;56;1141013;-87
2021/11/20 01:02:17;;;;;;;5.53;1.80;;;;;;;11.55;100.00;100846.25;5253808;56;1141136;-86
2021/11/20 01:07:22;;;;;;;2.65;1.15;;;;;;;11.59;100.00;100844.22;5253727;56;1141004;-87
2021/11/20 01:12:31;;;;;;;7.37;1.07;;;;;;;11.61;100.00;100860.33;5253533;56;1141008;-85
2021/11/20 01:17:37;;;;;;;4.93;1.20;;;;;;;11.63;100.00;100879.61;5253582;56;1141152;-85
2021/11/20 01:22:46;;;;;;;4.53;1.10;;;;;;;11.64;100.00;100876.00;5026019;58;1141026;-85
2021/11/20 01:28:07;;;;;;;6.87;1.23;;;;;;;11.65;100.00;100883.47;4995425;59;1141110;-85
2021/11/20 01:33:22;;;;;;;1.70;1.20;;;;;;;11.66;100.00;100906.35;4981731;59;1141128;-89
2021/11/20 01:38:28;;;;;;;6.17;1.87;;;;;;;11.67;100.00;100901.42;4995726;59;1141142;-84
2021/11/20 01:43:36;;;;;;;3.50;1.60;;;;;;;11.66;100.00;100888.29;4994349;59;1141061;-87
2021/11/20 01:49:14;;;;;;;5.23;1.33;;;;;;;11.67;100.00;100908.52;4995559;59;1141306;-85
2021/11/20 01:54:42;;;;;;;3.23;1.37;;;;;;;11.66;100.00;100906.35;5108003;57;1141013;-85
2021/11/20 02:00:22;;;;;;;8.07;2.20;;;;;;;11.61;100.00;100911.15;4840698;60;1139010;-88
2021/11/20 02:05:50;;;;;;;8.07;1.37;;;;;;;11.57;100.00;100903.94;4840740;60;1139144;-88
2021/11/20 02:11:05;;;;;;;4.77;1.70;;;;;;;11.54;100.00;100902.84;4840627;60;1139028;-88
2021/11/20 02:16:19;;;;;;;;;;;;;;;11.50;100.00;100885.48;4843892;60;1139100;-89
2021/11/20 02:21:35;;;;;;;10.03;2.10;;;;;;;11.47;100.00;100894.13;4884357;60;974470;-86
2021/11/20 02:26:41;;;;;;;5.87;2.20;;;;;;;11.43;100.00;100893.54;4902757;60;1141187;-89
2021/11/20 02:31:55;;;;;;;4.47;1.40;;;;;;;11.41;100.00;100897.25;4906946;60;1141136;-87
2021/11/20 02:37:02;;;;;;;6.03;1.47;;;;;;;11.34;100.00;100889.39;5015777;58;1141098;-85
2021/11/20 02:42:15;;;;;;;9.47;1.77;;;;;;;11.33;100.00;100887.22;5167298;57;1141083;-88
2021/11/20 02:47:27;;;;;;;3.57;1.57;;;;;;;11.32;100.00;100915.98;5166896;57;1140998;-90
2021/11/20 02:52:34;;;;;;;3.53;1.87;;;;;;;11.31;100.00;100909.47;5132502;57;1140953;-87
2021/11/20 02:57:42;;;;;;;6.60;1.47;;;;;;;11.27;100.00;100893.84;5167337;57;1140965;-88
2021/11/20 03:02:48;;;;;;;5.57;1.33;;;;;;;11.24;100.00;100913.08;5167271;57;1141044;-85
2021/11/20 03:07:54;;;;;;;4.08;1.30;;;;;;;11.20;100.00;100908.48;5167054;57;1141008;-88
2021/11/20 03:12:59;;;;;;;3.90;1.70;;;;;;;11.18;100.00;100925.42;5167214;57;1141065;-87
2021/11/20 03:18:06;;;;;;;3.70;1.10;;;;;;;11.17;100.00;100929.88;5167174;57;1140999;-86
2021/11/20 03:23:23;;;;;;;4.03;1.17;;;;;;;11.17;100.00;100931.67;5198617;56;1141166;-85
2021/11/20 03:28:29;;;;;;;4.03;1.93;;;;;;;11.17;100.00;100937.81;5219320;56;1140998;-86
2021/11/20 03:33:36;;;;;;;8.27;1.57;;;;;;;11.16;100.00;100942.74;5219298;56;1140972;-92
2021/11/20 03:38:43;;;;;;;7.20;2.60;;;;;;;11.12;100.00;100942.63;5219322;56;1140985;-91
2021/11/20 03:43:50;;;;;;;4.97;1.63;;;;;;;11.10;100.00;100942.37;5219469;56;1141046;-90
2021/11/20 03:48:59;;;;;;;8.37;1.67;;;;;;;11.12;100.00;100954.54;5219341;56;1141248;-87
2021/11/20 03:54:05;;;;;;;3.37;1.13;;;;;;;11.11;100.00;100958.14;5194859;56;1140989;-86
2021/11/20 03:59:12;;;;;;;2.77;1.10;;;;;;;11.09;100.00;100961.38;5184183;56;1141003;-88
2021/11/20 04:04:18;;;;;;;1.80;0.90;;;;;;;11.06;100.00;100953.65;5163229;56;1140959;-87
2021/11/20 04:09:25;;;;;;;3.13;1.00;;;;;;;11.05;100.00;100954.60;5157643;56;1140946;-85
2021/11/20 04:14:32;;;;;;;3.57;1.60;;;;;;;11.04;100.00;100956.03;5160686;56;1141027;-85
2021/11/20 04:19:39;;;;;;;4.27;1.57;;;;;;;11.01;100.00;100962.87;5183420;56;1141048;-86
2021/11/20 04:24:44;;;;;;;1.60;1.03;;;;;;;10.98;100.00;100959.14;5192189;56;1141066;-88
2021/11/20 04:29:55;;;;;;;5.97;2.07;;;;;;;10.97;100.00;100965.39;5206421;56;1140929;-88
2021/11/20 04:35:02;;;;;;;6.87;1.03;;;;;;;10.99;100.00;100964.33;5183804;56;1140978;-86
2021/11/20 04:40:10;;;;;;;4.47;1.37;;;;;;;11.01;100.00;100971.66;5210527;56;1141030;-87
2021/11/20 04:45:19;;;;;;;3.13;1.00;;;;;;;11.03;100.00;100979.01;5231869;56;1140977;-85
2021/11/20 04:50:28;;;;;;;6.10;1.30;;;;;;;11.03;100.00;100976.36;5185466;56;1138886;-88
2021/11/20 04:55:34;;;;;;;4.43;1.30;;;;;;;11.05;100.00;100977.58;5234892;56;1139100;-86
2021/11/20 05:00:45;;;;;;;3.93;1.80;;;;;;;11.06;100.00;100987.22;5244204;56;1139033;-89
2021/11/20 05:05:55;;;;;;;6.60;2.47;;;;;;;11.06;100.00;100986.73;5244110;56;1138943;-87
2021/11/20 05:11:01;;;;;;;3.50;1.92;;;;;;;11.05;100.00;100997.43;5244376;56;1139014;-87
2021/11/20 05:16:11;;;;;;;6.07;2.10;;;;;;;11.01;100.00;100998.12;5243513;56;1139428;-87
2021/11/20 05:21:19;;;;;;;6.67;1.30;;;;;;;10.97;100.00;100990.05;5218735;56;1138938;-88
2021/11/20 05:26:27;;;;;;;4.33;1.70;;;;;;;10.91;100.00;100991.33;5153051;56;1138966;-84
2021/11/20 05:31:37;;;;;;;4.83;1.15;;;;;;;10.88;100.00;100987.58;5152405;56;1139021;-88
2021/11/20 05:36:43;;;;;;;3.13;1.23;;;;;;;10.87;100.00;100994.30;5153159;56;1138901;-86
2021/11/20 05:41:52;;;;;;;2.43;1.50;;;;;;;10.85;100.00;100990.43;5153043;56;1138993;-86
2021/11/20 05:47:00;;;;;;;4.73;1.70;;;;;;;10.82;100.00;101001.26;5153085;56;1138889;-88
2021/11/20 05:52:09;;;;;;;5.50;1.63;;;;;;;10.79;100.00;100995.33;5178575;56;1136930;-85
2021/11/20 05:57:15;;;;;;;6.57;2.00;;;;;;;10.78;100.00;100992.31;5153229;56;1136963;-89
2021/11/20 06:02:21;;;;;;;3.50;1.30;;;;;;;10.75;100.00;100997.81;5153526;56;1140943;-88
2021/11/20 06:07:29;;;;;;;3.70;1.97;;;;;;;10.71;100.00;101010.41;5153319;56;1141630;-85
2021/11/20 06:12:36;;;;;;;5.73;3.27;;;;;;;10.72;100.00;101018.72;5143985;56;1140898;-87
2021/11/20 06:17:42;;;;;;;4.30;1.30;;;;;;;10.73;100.00;101022.20;5153852;56;1141136;-87
2021/11/20 06:22:48;;;;;;;7.90;2.13;;;;;;;10.69;100.00;101021.60;5203206;56;1141036;-91
2021/11/20 06:27:54;;;;;;;4.60;2.17;;;;;;;10.69;100.00;101040.13;5219279;56;1141137;-91
2021/11/20 06:33:01;;;;;;;7.80;3.40;;;;;;;10.68;100.00;101043.72;5219483;56;1141064;-86
2021/11/20 06:38:27;;;;;;;6.07;1.80;;;;;;;10.68;100.00;101052.12;5219523;56;1141453;-84
2021/11/20 06:43:34;;;;;;;5.70;1.67;;;;;;;10.69;100.00;101057.79;5219348;56;1140995;-85
2021/11/20 06:48:40;;;;;;;2.83;1.23;;;;;;;10.67;100.00;101063.66;5219374;56;1140953;-86
2021/11/20 06:53:51;;;;;;;1.87;1.50;;;;;;;10.66;100.00;101065.94;5218255;56;1140985;-86
2021/11/20 07:04:27;;;;;;;3.30;1.57;;;;;;;10.68;100.00;101078.58;5144741;56;1141007;-84
2021/11/20 07:09:34;;;;;;;4.23;1.43;;;;;;;10.67;100.00;101078.21;5219397;56;1140984;-86
2021/11/20 07:14:40;;;;;;;7.10;2.73;;;;;;;10.69;100.00;101082.45;5219378;56;1141239;-86
2021/11/20 07:19:46;;;;;;;8.97;1.40;;;;;;;10.72;100.00;101082.20;5219330;56;1140949;-85
2021/11/20 07:25:11;;;;;;;3.17;1.20;;;;;;;10.80;100.00;101073.28;5133736;57;1141053;-86
2021/11/20 07:30:18;;;;;;;2.57;1.40;;;;;;;10.92;100.00;101072.89;5133507;57;1141047;-86
2021/11/20 07:35:32;;;;;;;3.92;1.20;;;;;;;10.95;100.00;101076.66;5133715;57;1141086;-86
2021/11/20 07:40:41;;;;;;;3.13;1.33;;;;;;;11.03;100.00;101077.42;5171559;56;1141287;-89
2021/11/20 07:45:47;;;;;;;3.30;1.03;;;;;;;11.10;100.00;101071.60;5173350;56;1141139;-85
2021/11/20 07:50:59;;;;;;;2.70;1.00;;;;;;;11.21;100.00;101070.34;5176355;56;1141198;-86
2021/11/20 07:56:17;;;;;;;2.77;1.23;;;;;;;11.34;99.34;101075.61;5171515;56;1139141;-89
2021/11/20 08:01:24;;;;;;;1.27;0.90;;;;;;;11.40;99.28;101076.50;5151003;56;1136977;-83
2021/11/20 08:06:31;;;;;;;3.03;1.40;;;;;;;11.48;99.46;101085.20;5133955;57;1136946;-83
2021/11/20 08:11:43;;;;;;;1.70;0.90;;;;;;;11.53;99.41;101081.28;5134991;56;1136895;-85
2021/11/20 08:16:49;;;;;;;2.45;0.72;;;;;;;11.63;98.51;101076.14;5166745;56;1137293;-83
2021/11/20 08:21:55;;;;;;;2.33;0.90;;;;;;;11.75;98.87;101071.30;5136608;56;1136772;-83
2021/11/20 08:27:09;;;;;;;1.63;1.03;;;;;;;11.84;98.56;101070.63;5143045;57;1136878;-83
2021/11/20 08:32:13;;;;;;;1.17;0.70;;;;;;;11.91;97.79;101068.39;5208898;56;1136848;-84
2021/11/20 08:37:23;;;;;;;0.43;0.43;;;;;;;11.98;98.09;101074.91;5240172;56;1136869;-84
2021/11/20 08:42:35;;;;;;;2.30;0.80;;;;;;;12.11;97.21;101073.02;5224323;56;1136943;-85
2021/11/20 08:47:44;;;;;;;3.60;0.70;;;;;;;12.13;97.03;101073.76;5243006;56;1135171;-89
2021/11/20 08:52:50;;;;;;;2.83;1.07;;;;;;;12.12;96.33;101077.84;5242675;56;1134918;-85
2021/11/20 08:57:56;;;;;;;0.73;0.70;;;;;;;12.07;96.65;101068.09;5243005;56;1138891;-84
2021/11/20 09:03:16;;;;;;;3.17;1.20;;;;;;;12.11;96.54;101058.44;5243344;56;1148622;-88
2021/11/20 09:08:29;;;;;;;0.80;0.50;;;;;;;12.17;96.75;101063.30;5243508;56;1138907;-86
2021/11/20 09:13:42;;;;;;;1.55;0.50;;;;;;;12.16;95.44;101056.30;4949101;59;1138919;-87
2021/11/20 09:18:49;;;;;;;3.37;1.00;;;;;;;12.16;94.25;101047.02;4943054;59;1139142;-88
2021/11/20 09:23:55;;;;;;;2.83;1.50;;;;;;;12.13;94.80;101057.00;4956981;59;1139052;-86
2021/11/20 09:29:10;;;;;;;4.03;0.80;;;;;;;12.07;95.52;101049.53;4960751;59;1139087;-86
2021/11/20 09:34:18;;;;;;;0.77;0.77;;;;;;;12.01;96.28;101045.52;4965415;59;1139014;-85
2021/11/20 09:39:34;;;;;;;2.23;0.50;;;;;;;11.96;97.56;101043.20;4953727;59;1139037;-88
2021/11/20 09:44:43;;;;;;;2.53;1.40;;;;;;;11.93;99.24;101038.61;4948078;59;1138932;-83
2021/11/20 09:49:57;;;;;;;1.87;0.90;;;;;;;11.79;100.00;101036.14;5071857;56;1138890;-81
2021/11/20 09:55:05;;;;;;;3.33;1.17;;;;;;;11.61;100.00;101030.36;5228457;55;1141134;-83
2021/11/20 10:00:57;;;;;;;0.60;0.53;;;;;;;11.59;100.00;101022.56;5246782;56;1141134;-81
2021/11/20 10:06:13;;;;;;;1.10;0.63;;;;;;;11.58;100.00;101014.24;5196740;56;1141060;-83
2021/11/20 10:13:47;;;;;;;1.30;0.60;;;;;;;11.66;100.00;101007.52;5392567;54;46161;-85
2021/11/20 10:19:07;;;;;;;1.12;0.93;;;;;;;11.58;100.00;101007.63;5088003;57;1136934;-84
2021/11/20 10:24:38;;;;;;;1.10;0.70;;;;;;;11.54;100.00;101004.83;5085495;56;1141060;-83
2021/11/20 10:30:14;;;;;;;0.63;0.50;;;;;;;11.50;100.00;100999.37;5156560;56;1141078;-85
2021/11/20 10:35:34;;;;;;;1.33;0.70;;;;;;;11.44;100.00;100990.58;5156423;56;1141083;-85
2021/11/20 10:40:59;;;;;;;0.90;0.80;;;;;;;11.39;100.00;100989.22;5155813;56;1141096;-83
2021/11/20 10:46:27;;;;;;;1.17;1.17;;;;;;;11.34;100.00;100989.54;5155474;56;1141308;-83
2021/11/20 10:51:50;;;;;;;1.10;0.83;;;;;;;11.32;100.00;100987.48;5155650;56;1140971;-84
2021/11/20 10:57:30;;;;;;;1.40;1.13;;;;;;;11.31;100.00;100979.64;5156056;56;1138917;-85
2021/11/20 11:02:50;;;;;;;6.60;1.00;;;;;;;11.28;100.00;100980.73;5114901;57;1139030;-85
2021/11/20 11:08:24;;;;;;;1.10;1.10;;;;;;;11.23;100.00;100973.13;5064712;57;1138974;-87
2021/11/20 11:14:03;;;;;;;1.60;1.50;;;;;;;11.19;100.00;100970.80;5069148;57;1141087;-84
2021/11/20 11:19:36;;;;;;;1.73;1.63;;;;;;;11.17;100.00;100964.29;5012907;57;1141018;-84
2021/11/20 11:25:23;;;;;;;3.17;1.50;;;;;;;11.17;100.00;100960.80;4993935;58;1141096;-85
2021/11/20 11:31:17;;;;;;;4.80;1.43;;;;;;;11.12;100.00;100951.89;5152334;57;1141344;-87
2021/11/20 11:36:47;;;;;;;3.40;2.17;;;;;;;11.10;100.00;100955.60;5059416;57;1141135;-83
2021/11/20 11:42:06;;;;;;;2.87;1.70;;;;;;;11.05;100.00;100954.60;5015579;58;1139070;-85
2021/11/20 11:47:48;;;;;;;2.27;1.83;;;;;;;11.00;100.00;100938.20;5037807;58;1139104;-84
2021/11/20 11:53:20;;;;;;;2.43;2.10;;;;;;;11.02;100.00;100932.80;5050499;58;1139148;-82
2021/11/20 11:58:32;;;;;;;6.60;2.27;;;;;;;11.01;100.00;100925.33;5043048;58;1136985;-86
2021/11/20 12:03:40;;;;;;;;;;;;;;;11.00;100.00;100910.92;5048089;57;1141252;-84
2021/11/20 12:09:02;;;;;;;1.77;1.67;;;;;;;11.01;100.00;100907.28;5132972;57;978609;-85
2021/11/20 12:14:16;;;;;;;2.93;2.10;;;;;;;10.95;100.00;100893.20;5165977;56;1139120;-79
2021/11/20 12:19:37;;;;;;;15.47;8.73;;;;;;;10.91;100.00;100902.67;5084542;58;1141156;-80
2021/11/20 12:25:06;;;;;;;49.97;41.63;;;;;;;10.89;100.00;100894.48;5030245;58;1143245;-80
2021/11/20 12:30:34;;;;;;;83.77;67.97;;;;;;;10.87;100.00;100884.48;5012040;58;1145400;-81
2021/11/20 12:36:25;;;;;;;5.33;4.70;;;;;;;10.85;100.00;100885.91;4999680;58;1145533;-80
2021/11/20 12:41:46;;;;;;;3.20;2.73;;;;;;;10.80;100.00;100872.20;5111079;57;1141096;-80
2021/11/20 12:47:08;;;;;;;6.83;3.60;;;;;;;10.76;100.00;100861.94;5076654;57;1141327;-82
2021/11/20 12:52:27;;;;;;;8.13;5.67;;;;;;;10.75;100.00;100850.98;4989769;58;1139153;-81
2021/11/20 12:57:41;;;;;;;3.50;2.40;;;;;;;10.73;100.00;100848.92;5092745;57;1139090;-81
2021/11/20 13:03:03;;;;;;;11.73;6.47;;;;;;;10.74;100.00;100842.20;5131605;57;1139262;-80
2021/11/20 13:08:27;;;;;;;10.73;6.10;;;;;;;10.71;100.00;100833.64;4976521;57;1141083;-81
2021/11/20 13:13:49;;;;;;;8.23;5.13;;;;;;;10.71;100.00;100833.64;5041943;57;1141392;-80
2021/11/20 13:19:07;;;;;;;7.67;5.30;;;;;;;10.72;100.00;100830.03;5062684;58;1141384;-80
2021/11/20 13:24:24;;;;;;;11.67;6.47;;;;;;;10.76;100.00;100824.90;5055295;58;1141085;-80
2021/11/20 13:29:44;;;;;;;7.47;4.83;;;;;;;10.76;100.00;100816.48;5062384;57;1143429;-81
2021/11/20 13:34:53;;;;;;;6.67;4.33;;;;;;;10.77;100.00;100804.10;5062319;57;1141406;-80
2021/11/20 13:39:58;;;;;;;5.27;3.13;;;;;;;10.77;100.00;100804.10;5062018;57;1141405;-80
2021/11/20 13:45:07;;;;;;;5.07;3.37;;;;;;;10.74;100.00;100797.23;5062701;57;1141140;-80
2021/11/20 13:50:12;;;;;;;4.80;2.43;;;;;;;10.74;100.00;100781.83;5062651;57;1141170;-80
2021/11/20 13:55:21;;;;;;;8.20;3.57;;;;;;;10.71;100.00;100772.80;5062819;57;1141154;-80
2021/11/20 14:00:26;;;;;;;2.70;2.03;;;;;;;10.73;100.00;100769.56;5062493;57;1141121;-80
2021/11/20 14:05:36;;;;;;;16.40;10.70;;;;;;;10.70;100.00;100762.69;5062654;57;1141192;-80
2021/11/20 14:10:45;;;;;;;116.27;81.37;;;;;;;10.72;100.00;100762.58;5062834;57;1145521;-80
2021/11/20 14:15:53;;;;;;;71.63;33.07;;;;;;;10.70;100.00;100749.47;5062581;57;1147449;-80
2021/11/20 14:21:03;;;;;;;31.87;14.23;;;;;;;10.71;100.00;100750.31;5081161;57;1145132;-80
2021/11/20 14:26:10;;;;;;;35.67;17.27;;;;;;;10.70;100.00;100742.01;5112957;57;1145257;-80
2021/11/20 14:31:22;;;;;;;12.33;7.87;;;;;;;10.70;100.00;100742.01;5069984;57;1145377;-79
2021/11/20 14:36:46;;;;;;;8.67;6.67;;;;;;;10.70;100.00;100732.75;5094813;57;1143156;-80
2021/11/20 14:41:52;;;;;;;7.47;3.60;;;;;;;10.68;100.00;100722.31;5122918;57;1141165;-79
2021/11/20 14:47:11;;;;;;;7.17;2.80;;;;;;;10.67;100.00;100714.01;5133788;57;1141222;-79
2021/11/20 14:52:24;;;;;;;6.47;4.47;;;;;;;10.69;100.00;100716.55;5167679;56;1141267;-80
2021/11/20 14:57:39;;;;;;;7.10;4.25;;;;;;;10.69;100.00;100713.89;5234366;56;1138311;-80
2021/11/20 15:02:40;;;;;;;59.90;19.57;;;;;;;10.68;100.00;100713.05;5234055;56;1139032;-80
2021/11/20 15:07:46;;;;;;;44.00;16.23;;;;;;;10.66;100.00;100710.16;5233999;56;1143158;-79
2021/11/20 15:12:53;;;;;;;22.27;10.07;;;;;;;10.63;100.00;100713.86;5235341;55;1143205;-79
2021/11/20 15:18:00;;;;;;;87.47;35.97;;;;;;;10.62;100.00;100706.05;5270479;56;1143247;-80
2021/11/20 15:23:06;;;;;;;151.43;50.97;;;;;;;10.60;100.00;100699.54;5213976;56;1143271;-79
2021/11/20 15:28:12;;;;;;;77.20;29.03;;;;;;;10.59;100.00;100693.88;5182686;57;1145271;-80
2021/11/20 15:33:18;;;;;;;85.97;30.07;;;;;;;10.57;100.00;100684.74;5192431;56;1143228;-79
2021/11/20 15:38:24;;;;;;;67.07;27.00;;;;;;;10.56;100.00;100683.53;5224925;56;1143198;-79
2021/11/20 15:43:29;;;;;;;44.43;19.50;;;;;;;10.54;100.00;100686.80;5208077;56;1143329;-80
2021/11/20 15:48:35;;;;;;;44.57;18.83;;;;;;;10.51;100.00;100680.41;5268629;56;1143394;-81
2021/11/20 15:53:41;;;;;;;10.27;5.00;;;;;;;10.51;100.00;100676.44;5268671;56;1143179;-82
2021/11/20 15:58:49;;;;;;;11.57;7.90;;;;;;;10.48;100.00;100662.12;5269241;55;1141165;-81
2021/11/20 16:03:55;;;;;;;5.37;3.60;;;;;;;10.49;100.00;100662.48;5263391;56;1141514;-81
2021/11/20 16:09:01;;;;;;;9.90;5.03;;;;;;;10.49;100.00;100666.45;5221604;55;1139025;-81
2021/11/20 16:14:07;;;;;;;11.90;6.20;;;;;;;10.50;100.00;100665.50;5260459;56;1139021;-81
2021/11/20 16:19:13;;;;;;;13.13;5.00;;;;;;;10.47;100.00;100659.11;5191952;56;1141122;-82
2021/11/20 16:24:21;;;;;;;8.03;4.93;;;;;;;10.47;100.00;100661.75;5188487;56;1139064;-80
2021/11/20 16:29:27;;;;;;;10.00;5.50;;;;;;;10.46;100.00;100647.69;5219751;56;1141053;-83
2021/11/20 16:34:33;;;;;;;9.67;4.67;;;;;;;10.42;100.00;100640.94;5139863;55;1143306;-80
2021/11/20 16:39:40;;;;;;;17.87;11.90;;;;;;;10.41;100.00;100641.89;5218955;56;1141315;-81
2021/11/20 16:44:45;;;;;;;12.43;6.20;;;;;;;10.42;100.00;100644.05;5218163;56;1145680;-82
2021/11/20 16:49:52;;;;;;;12.90;6.13;;;;;;;10.40;100.00;100633.59;5245988;56;1143269;-82
2021/11/20 16:54:58;;;;;;;16.17;9.47;;;;;;;10.40;100.00;100636.23;5182584;56;1143317;-82
2021/11/20 17:00:05;;;;;;;9.90;6.10;;;;;;;10.38;100.00;100633.37;5231454;56;1143418;-81
2021/11/20 17:05:11;;;;;;;8.50;5.63;;;;;;;10.37;100.00;100629.03;5213183;56;1141191;-82
2021/11/20 17:10:17;;;;;;;14.07;7.70;;;;;;;10.39;100.00;100620.52;5220087;56;1141208;-82
2021/11/20 17:15:22;;;;;;;41.93;16.20;;;;;;;10.37;100.00;100617.14;5238981;56;1143203;-81
2021/11/20 17:20:28;;;;;;;36.70;13.10;;;;;;;10.36;100.00;100614.13;5238539;56;1145238;-82
2021/11/20 17:25:34;;;;;;;32.73;11.33;;;;;;;10.33;100.00;100597.17;5182546;57;1145275;-81
2021/11/20 17:30:39;;;;;;;25.33;11.13;;;;;;;10.33;100.00;100589.24;5182438;57;1145532;-84
2021/11/20 17:35:48;;;;;;;24.47;9.87;;;;;;;10.29;100.00;100582.02;5182416;57;1145424;-83
2021/11/20 17:40:54;;;;;;;22.10;7.87;;;;;;;10.29;100.00;100586.45;5182524;56;1143612;-83
2021/11/20 17:46:00;;;;;;;37.33;12.10;;;;;;;10.27;100.00;100585.25;5182381;56;1143574;-83
2021/11/20 17:51:06;;;;;;;67.87;19.70;;;;;;;10.27;100.00;100579.95;5182177;57;1145811;-83
2021/11/20 17:56:14;;;;;;;18.87;9.40;;;;;;;10.28;100.00;100570.23;5181989;56;1145851;-83
2021/11/20 18:01:24;;;;;;;46.37;11.83;;;;;;;10.28;100.00;100571.07;5182225;57;1143286;-83
2021/11/20 18:06:29;;;;;;;23.63;10.23;;;;;;;10.27;100.00;100569.39;5182404;56;1145263;-82
2021/11/20 18:11:36;;;;;;;222.57;123.67;;;;;;;10.26;100.00;100569.50;5198852;56;1145523;-81
2021/11/20 18:16:42;;;;;;;87.90;59.63;;;;;;;10.27;100.00;100556.17;5237464;56;1149501;-80
2021/11/20 18:26:48;;;;;;;13.93;9.47;;;;;;;10.28;100.00;100534.06;5311630;55;46085;-83
2021/11/20 18:31:58;;;;;;;13.97;7.47;;;;;;;10.25;100.00;100537.41;5111018;57;1139406;-80
2021/11/20 18:37:01;;;;;;;35.47;12.50;;;;;;;10.23;100.00;100537.56;5049627;57;1143073;-84
2021/11/20 18:42:07;;;;;;;21.67;8.60;;;;;;;10.23;100.00;100535.73;5109053;58;1145541;-78
2021/11/20 18:47:13;;;;;;;24.43;12.03;;;;;;;10.23;100.00;100521.70;5113908;58;1143259;-78
2021/11/20 18:52:19;;;;;;;24.77;10.90;;;;;;;10.23;100.00;100523.50;5083769;57;1145265;-81
2021/11/20 18:57:25;;;;;;;30.47;10.00;;;;;;;10.25;100.00;100522.88;5077064;57;1145267;-81
2021/11/20 19:02:30;;;;;;;35.27;11.23;;;;;;;10.21;100.00;100506.44;5132399;56;1145360;-81
2021/11/20 19:07:36;;;;;;;22.67;10.40;;;;;;;10.18;100.00;100496.93;5182289;56;1145215;-82
2021/11/20 19:12:42;;;;;;;18.90;9.43;;;;;;;10.19;100.00;100498.62;5192507;56;1145337;-74
2021/11/20 19:17:48;;;;;;;36.00;13.70;;;;;;;10.19;100.00;100493.81;5231561;56;1143508;-80
2021/11/20 19:22:54;;;;;;;20.27;9.70;;;;;;;10.18;100.00;100482.84;5184693;56;1145499;-74
2021/11/20 19:28:00;;;;;;;19.73;15.53;;;;;;;10.16;100.00;100473.70;5129785;57;1143428;-78
2021/11/20 19:33:09;;;;;;;40.13;14.00;;;;;;;10.18;100.00;100468.30;5102979;57;1145210;-79
2021/11/20 19:38:15;;;;;;;21.77;11.17;;;;;;;10.18;100.00;100467.86;5103450;56;1145279;-74
2021/11/20 19:43:21;;;;;;;27.30;13.03;;;;;;;10.17;100.00;100461.33;5125144;56;1145337;-75
2021/11/20 19:48:26;;;;;;;16.60;8.77;;;;;;;10.17;100.00;100464.82;5072311;57;1145252;-81
2021/11/20 19:53:31;;;;;;;13.23;7.43;;;;;;;10.15;100.00;100456.64;5132336;56;1140650;-80
2021/11/20 19:58:37;;;;;;;9.33;6.17;;;;;;;10.13;100.00;100450.15;5008616;58;1141181;-78
2021/11/20 20:03:43;;;;;;;16.40;8.10;;;;;;;10.11;100.00;100448.10;5184315;56;1138983;-82
2021/11/20 20:08:49;;;;;;;10.93;6.00;;;;;;;10.09;100.00;100444.73;5168235;56;1141371;-76
2021/11/20 20:13:56;;;;;;;13.93;7.40;;;;;;;10.04;100.00;100434.17;5015180;58;1141152;-79
2021/11/20 20:19:02;;;;;;;10.13;6.90;;;;;;;10.05;100.00;100433.22;5185837;56;1141117;-77
2021/11/20 20:24:08;;;;;;;13.53;8.37;;;;;;;10.03;100.00;100424.56;5178583;56;1141117;-78
2021/11/20 20:29:14;;;;;;;11.23;8.33;;;;;;;10.03;100.00;100424.56;5103552;57;1141129;-86
2021/11/20 20:34:19;;;;;;;6.40;5.80;;;;;;;10.02;100.00;100415.79;5190129;56;1141138;-83
2021/11/20 20:39:25;;;;;;;10.50;5.50;;;;;;;10.01;100.00;100408.82;5180351;56;1139047;-85
2021/11/20 20:44:31;;;;;;;10.43;7.33;;;;;;;9.99;100.00;100391.40;5181586;56;1141126;-80
2021/11/20 20:49:37;;;;;;;8.40;6.70;;;;;;;9.98;100.00;100388.39;5055564;58;1139323;-77
2021/11/20 20:54:43;;;;;;;17.87;7.90;;;;;;;10.00;100.00;100375.91;5055607;58;1137037;-79
2021/11/20 20:59:48;;;;;;;11.13;6.50;;;;;;;9.98;100.00;100360.65;5055497;58;1141287;-82
2021/11/20 21:04:57;;;;;;;6.10;5.30;;;;;;;9.98;100.00;100358.85;5055442;58;1139102;-78
2021/11/20 21:10:05;;;;;;;9.63;5.70;;;;;;;9.96;100.00;100350.20;5150936;57;1137174;-79
2021/11/20 21:15:12;;;;;;;12.53;6.80;;;;;;;9.93;100.00;100352.27;5055483;58;1136981;-83
2021/11/20 21:25:41;;;;;;;14.63;8.20;;;;;;;9.90;100.00;100345.41;5167141;56;1139251;-83
2021/11/20 21:30:49;;;;;;;13.47;7.27;;;;;;;9.88;100.00;100335.44;5083955;57;1141136;-82
2021/11/20 21:35:55;;;;;;;9.50;6.97;;;;;;;9.87;100.00;100317.42;5171091;56;1141110;-83
2021/11/20 21:41:01;;;;;;;7.87;6.40;;;;;;;9.84;100.00;100315.02;5005651;58;1139150;-76
2021/11/20 21:46:07;;;;;;;11.20;7.10;;;;;;;9.81;100.00;100308.64;5178398;56;1138973;-84
2021/11/20 21:51:12;;;;;;;8.80;7.33;;;;;;;9.79;100.00;100310.56;5199057;56;1141124;-75
2021/11/20 21:56:21;;;;;;;15.10;7.30;;;;;;;9.75;100.00;100304.34;4997907;58;1139268;-81
2021/11/20 22:01:27;;;;;;;8.33;7.20;;;;;;;9.70;100.00;100299.41;4995648;58;1141953;-79
2021/11/20 22:06:33;;;;;;;10.23;6.30;;;;;;;9.67;100.00;100277.19;5141569;57;1139128;-82
2021/11/20 22:11:39;;;;;;;14.17;7.03;;;;;;;9.63;100.00;100277.53;5141560;57;1141158;-85
2021/11/20 22:16:44;;;;;;;12.87;9.37;;;;;;;9.59;100.00;100263.75;5141481;57;1141158;-83
2021/11/20 22:21:50;;;;;;;15.03;8.20;;;;;;;9.56;100.00;100261.83;5167345;56;1141152;-80
2021/11/20 22:27:00;;;;;;;19.10;9.67;;;;;;;9.52;100.00;100265.17;5198369;56;1141335;-81
2021/11/20 22:32:06;;;;;;;11.60;7.90;;;;;;;9.51;100.00;100259.53;5169172;56;1141156;-79
2021/11/20 22:37:13;;;;;;;12.20;6.80;;;;;;;9.47;100.00;100254.95;5074158;57;1141357;-78
2021/11/20 22:42:20;;;;;;;10.98;7.90;;;;;;;9.42;100.00;100240.45;5072334;58;1141256;-80
2021/11/20 22:47:25;;;;;;;12.53;8.10;;;;;;;9.37;100.00;100235.52;5075246;58;1141089;-81
2021/11/20 22:52:31;;;;;;;15.60;9.13;;;;;;;9.33;100.00;100239.34;5075407;57;1141185;-80
2021/11/20 22:57:37;;;;;;;12.93;9.00;;;;;;;9.32;100.00;100228.42;4993315;58;1141383;-83
2021/11/20 23:02:43;;;;;;;19.80;10.23;;;;;;;9.26;100.00;100234.20;4993021;59;1141199;-83
2021/11/20 23:07:52;;;;;;;16.17;10.27;;;;;;;9.24;100.00;100218.11;5075392;57;1143191;-79
2021/11/20 23:12:57;;;;;;;10.10;8.17;;;;;;;9.24;100.00;100208.88;5076064;57;1143161;-80
2021/11/20 23:18:03;;;;;;;20.03;10.80;;;;;;;9.22;100.00;100203.72;4993796;59;1141383;-77
2021/11/20 23:23:11;;;;;;;15.10;9.63;;;;;;;9.24;100.00;100200.97;4991085;59;1143462;-80
2021/11/20 23:28:17;;;;;;;16.47;9.00;;;;;;;9.26;100.00;100203.01;5105334;57;1141075;-80